Aviation Digital Data Service (ADDS)

Output produced by METARs form (0437 UTC 26 June 2019)
found at http://www.aviationweather.gov/metar/data/
 
METAR text: LCLK 260430Z VRB02KT CAVOK 29/23 Q1009 NOSIG
Conditions at: LCLK (LARNACA/LARNAX A, CY) observed 0430 UTC 26 June 2019
Temperature: 29.0°C (84°F)
Dewpoint: 23.0°C (73°F) [RH = 70%]
Pressure (altimeter): 29.79 inches Hg (1009.0 mb)
Winds: variable direction winds at 2 MPH (2 knots; 1.0 m/s)
Visibility: 6 or more miles (10+ km)
Ceiling: ceiling and visibility are OK
Clouds: unknown
Weather: no significant weather observed at this time

METAR text: LCLK 260400Z 33003KT CAVOK 27/23 Q1009 NOSIG
Conditions at: LCLK (LARNACA/LARNAX A, CY) observed 0400 UTC 26 June 2019
Temperature: 27.0°C (81°F)
Dewpoint: 23.0°C (73°F) [RH = 79%]
Pressure (altimeter): 29.79 inches Hg (1009.0 mb)
Winds: from the NNW (330 degrees) at 3 MPH (3 knots; 1.5 m/s)
Visibility: 6 or more miles (10+ km)
Ceiling: ceiling and visibility are OK
Clouds: unknown
Weather: no significant weather observed at this time

METAR text: LCLK 260330Z 33003KT CAVOK 25/23 Q1009 NOSIG
Conditions at: LCLK (LARNACA/LARNAX A, CY) observed 0330 UTC 26 June 2019
Temperature: 25.0°C (77°F)
Dewpoint: 23.0°C (73°F) [RH = 89%]
Pressure (altimeter): 29.79 inches Hg (1009.0 mb)
Winds: from the NNW (330 degrees) at 3 MPH (3 knots; 1.5 m/s)
Visibility: 6 or more miles (10+ km)
Ceiling: ceiling and visibility are OK
Clouds: unknown
Weather: no significant weather observed at this time

METAR text: LCLK 260300Z 29003KT CAVOK 24/22 Q1008 NOSIG
Conditions at: LCLK (LARNACA/LARNAX A, CY) observed 0300 UTC 26 June 2019
Temperature: 24.0°C (75°F)
Dewpoint: 22.0°C (72°F) [RH = 89%]
Pressure (altimeter): 29.76 inches Hg (1008.0 mb)
Winds: from the WNW (290 degrees) at 3 MPH (3 knots; 1.5 m/s)
Visibility: 6 or more miles (10+ km)
Ceiling: ceiling and visibility are OK
Clouds: unknown
Weather: no significant weather observed at this time

METAR text: LCLK 260230Z 24004KT CAVOK 25/23 Q1008 NOSIG
Conditions at: LCLK (LARNACA/LARNAX A, CY) observed 0230 UTC 26 June 2019
Temperature: 25.0°C (77°F)
Dewpoint: 23.0°C (73°F) [RH = 89%]
Pressure (altimeter): 29.76 inches Hg (1008.0 mb)
Winds: from the WSW (240 degrees) at 5 MPH (4 knots; 2.1 m/s)
Visibility: 6 or more miles (10+ km)
Ceiling: ceiling and visibility are OK
Clouds: unknown
Weather: no significant weather observed at this time

METAR text: LCLK 260200Z 24005KT CAVOK 25/23 Q1008 NOSIG
Conditions at: LCLK (LARNACA/LARNAX A, CY) observed 0200 UTC 26 June 2019
Temperature: 25.0°C (77°F)
Dewpoint: 23.0°C (73°F) [RH = 89%]
Pressure (altimeter): 29.76 inches Hg (1008.0 mb)
Winds: from the WSW (240 degrees) at 6 MPH (5 knots; 2.6 m/s)
Visibility: 6 or more miles (10+ km)
Ceiling: ceiling and visibility are OK
Clouds: unknown
Weather: no significant weather observed at this time

METAR text: LCLK 260130Z 26003KT CAVOK 25/23 Q1008 NOSIG
Conditions at: LCLK (LARNACA/LARNAX A, CY) observed 0130 UTC 26 June 2019
Temperature: 25.0°C (77°F)
Dewpoint: 23.0°C (73°F) [RH = 89%]
Pressure (altimeter): 29.76 inches Hg (1008.0 mb)
Winds: from the W (260 degrees) at 3 MPH (3 knots; 1.5 m/s)
Visibility: 6 or more miles (10+ km)
Ceiling: ceiling and visibility are OK
Clouds: unknown
Weather: no significant weather observed at this time

METAR text: LCLK 260100Z 26003KT CAVOK 24/22 Q1008 NOSIG
Conditions at: LCLK (LARNACA/LARNAX A, CY) observed 0100 UTC 26 June 2019
Temperature: 24.0°C (75°F)
Dewpoint: 22.0°C (72°F) [RH = 89%]
Pressure (altimeter): 29.76 inches Hg (1008.0 mb)
Winds: from the W (260 degrees) at 3 MPH (3 knots; 1.5 m/s)
Visibility: 6 or more miles (10+ km)
Ceiling: ceiling and visibility are OK
Clouds: unknown
Weather: no significant weather observed at this time

METAR text: LCLK 260030Z 29004KT 250V310 CAVOK 25/23 Q1008 NOSIG
Conditions at: LCLK (LARNACA/LARNAX A, CY) observed 0030 UTC 26 June 2019
Temperature: 25.0°C (77°F)
Dewpoint: 23.0°C (73°F) [RH = 89%]
Pressure (altimeter): 29.76 inches Hg (1008.0 mb)
Winds: from the WNW (290 degrees) at 5 MPH (4 knots; 2.1 m/s)
Visibility: 6 or more miles (10+ km)
Ceiling: ceiling and visibility are OK
Clouds: unknown
Weather: no significant weather observed at this time

METAR text: LCLK 260000Z 20004KT 9999 FEW004 26/24 Q1008 NOSIG
Conditions at: LCLK (LARNACA/LARNAX A, CY) observed 0000 UTC 26 June 2019
Temperature: 26.0°C (79°F)
Dewpoint: 24.0°C (75°F) [RH = 89%]
Pressure (altimeter): 29.76 inches Hg (1008.0 mb)
Winds: from the SSW (200 degrees) at 5 MPH (4 knots; 2.1 m/s)
Visibility: 6 or more miles (10+ km)
Ceiling: at least 12,000 feet AGL
Clouds: few clouds at 400 feet AGL
Weather: no significant weather observed at this time

METAR text: LCLK 252330Z 19004KT 9999 FEW004 26/23 Q1008 NOSIG
Conditions at: LCLK (LARNACA/LARNAX A, CY) observed 2330 UTC 25 June 2019
Temperature: 26.0°C (79°F)
Dewpoint: 23.0°C (73°F) [RH = 84%]
Pressure (altimeter): 29.76 inches Hg (1008.0 mb)
Winds: from the S (190 degrees) at 5 MPH (4 knots; 2.1 m/s)
Visibility: 6 or more miles (10+ km)
Ceiling: at least 12,000 feet AGL
Clouds: few clouds at 400 feet AGL
Weather: no significant weather observed at this time

METAR text: LCLK 252300Z 20003KT 150V250 9999 FEW004 26/20 Q1008 NOSIG
Conditions at: LCLK (LARNACA/LARNAX A, CY) observed 2300 UTC 25 June 2019
Temperature: 26.0°C (79°F)
Dewpoint: 20.0°C (68°F) [RH = 70%]
Pressure (altimeter): 29.76 inches Hg (1008.0 mb)
Winds: from the SSW (200 degrees) at 3 MPH (3 knots; 1.5 m/s)
Visibility: 6 or more miles (10+ km)
Ceiling: at least 12,000 feet AGL
Clouds: few clouds at 400 feet AGL
Weather: no significant weather observed at this time

METAR text: LCLK 252230Z 21003KT 170V240 CAVOK 28/20 Q1008 NOSIG
Conditions at: LCLK (LARNACA/LARNAX A, CY) observed 2230 UTC 25 June 2019
Temperature: 28.0°C (82°F)
Dewpoint: 20.0°C (68°F) [RH = 62%]
Pressure (altimeter): 29.76 inches Hg (1008.0 mb)
Winds: from the SSW (210 degrees) at 3 MPH (3 knots; 1.5 m/s)
Visibility: 6 or more miles (10+ km)
Ceiling: ceiling and visibility are OK
Clouds: unknown
Weather: no significant weather observed at this time

METAR text: LCLK 252200Z 30005KT CAVOK 27/15 Q1008 NOSIG
Conditions at: LCLK (LARNACA/LARNAX A, CY) observed 2200 UTC 25 June 2019
Temperature: 27.0°C (81°F)
Dewpoint: 15.0°C (59°F) [RH = 48%]
Pressure (altimeter): 29.76 inches Hg (1008.0 mb)
Winds: from the WNW (300 degrees) at 6 MPH (5 knots; 2.6 m/s)
Visibility: 6 or more miles (10+ km)
Ceiling: ceiling and visibility are OK
Clouds: unknown
Weather: no significant weather observed at this time

METAR text: LCLK 252130Z 27003KT CAVOK 27/16 Q1008 NOSIG
Conditions at: LCLK (LARNACA/LARNAX A, CY) observed 2130 UTC 25 June 2019
Temperature: 27.0°C (81°F)
Dewpoint: 16.0°C (61°F) [RH = 51%]
Pressure (altimeter): 29.76 inches Hg (1008.0 mb)
Winds: from the W (270 degrees) at 3 MPH (3 knots; 1.5 m/s)
Visibility: 6 or more miles (10+ km)
Ceiling: ceiling and visibility are OK
Clouds: unknown
Weather: no significant weather observed at this time

METAR text: LCLK 252100Z 28004KT CAVOK 27/16 Q1008 NOSIG
Conditions at: LCLK (LARNACA/LARNAX A, CY) observed 2100 UTC 25 June 2019
Temperature: 27.0°C (81°F)
Dewpoint: 16.0°C (61°F) [RH = 51%]
Pressure (altimeter): 29.76 inches Hg (1008.0 mb)
Winds: from the W (280 degrees) at 5 MPH (4 knots; 2.1 m/s)
Visibility: 6 or more miles (10+ km)
Ceiling: ceiling and visibility are OK
Clouds: unknown
Weather: no significant weather observed at this time

METAR text: LCLK 252030Z 29004KT 240V330 CAVOK 28/15 Q1008 NOSIG
Conditions at: LCLK (LARNACA/LARNAX A, CY) observed 2030 UTC 25 June 2019
Temperature: 28.0°C (82°F)
Dewpoint: 15.0°C (59°F) [RH = 45%]
Pressure (altimeter): 29.76 inches Hg (1008.0 mb)
Winds: from the WNW (290 degrees) at 5 MPH (4 knots; 2.1 m/s)
Visibility: 6 or more miles (10+ km)
Ceiling: ceiling and visibility are OK
Clouds: unknown
Weather: no significant weather observed at this time

METAR text: LCLK 252000Z 33006KT CAVOK 30/14 Q1008 NOSIG
Conditions at: LCLK (LARNACA/LARNAX A, CY) observed 2000 UTC 25 June 2019
Temperature: 30.0°C (86°F)
Dewpoint: 14.0°C (57°F) [RH = 38%]
Pressure (altimeter): 29.76 inches Hg (1008.0 mb)
Winds: from the NNW (330 degrees) at 7 MPH (6 knots; 3.1 m/s)
Visibility: 6 or more miles (10+ km)
Ceiling: ceiling and visibility are OK
Clouds: unknown
Weather: no significant weather observed at this time

METAR text: LCLK 251930Z 33007KT CAVOK 31/13 Q1008 NOSIG
Conditions at: LCLK (LARNACA/LARNAX A, CY) observed 1930 UTC 25 June 2019
Temperature: 31.0°C (88°F)
Dewpoint: 13.0°C (55°F) [RH = 33%]
Pressure (altimeter): 29.76 inches Hg (1008.0 mb)
Winds: from the NNW (330 degrees) at 8 MPH (7 knots; 3.6 m/s)
Visibility: 6 or more miles (10+ km)
Ceiling: ceiling and visibility are OK
Clouds: unknown
Weather: no significant weather observed at this time

METAR text: LCLK 251900Z 33009KT CAVOK 31/13 Q1008 NOSIG
Conditions at: LCLK (LARNACA/LARNAX A, CY) observed 1900 UTC 25 June 2019
Temperature: 31.0°C (88°F)
Dewpoint: 13.0°C (55°F) [RH = 33%]
Pressure (altimeter): 29.76 inches Hg (1008.0 mb)
Winds: from the NNW (330 degrees) at 10 MPH (9 knots; 4.6 m/s)
Visibility: 6 or more miles (10+ km)
Ceiling: ceiling and visibility are OK
Clouds: unknown
Weather: no significant weather observed at this time

METAR text: LCLK 251830Z 33008KT CAVOK 32/13 Q1008 NOSIG
Conditions at: LCLK (LARNACA/LARNAX A, CY) observed 1830 UTC 25 June 2019
Temperature: 32.0°C (90°F)
Dewpoint: 13.0°C (55°F) [RH = 32%]
Pressure (altimeter): 29.76 inches Hg (1008.0 mb)
Winds: from the NNW (330 degrees) at 9 MPH (8 knots; 4.1 m/s)
Visibility: 6 or more miles (10+ km)
Ceiling: ceiling and visibility are OK
Clouds: unknown
Weather: no significant weather observed at this time

METAR text: LCLK 251800Z 33008KT CAVOK 32/15 Q1008 NOSIG
Conditions at: LCLK (LARNACA/LARNAX A, CY) observed 1800 UTC 25 June 2019
Temperature: 32.0°C (90°F)
Dewpoint: 15.0°C (59°F) [RH = 36%]
Pressure (altimeter): 29.76 inches Hg (1008.0 mb)
Winds: from the NNW (330 degrees) at 9 MPH (8 knots; 4.1 m/s)
Visibility: 6 or more miles (10+ km)
Ceiling: ceiling and visibility are OK
Clouds: unknown
Weather: no significant weather observed at this time

METAR text: LCLK 251730Z 33009KT CAVOK 33/15 Q1008 NOSIG
Conditions at: LCLK (LARNACA/LARNAX A, CY) observed 1730 UTC 25 June 2019
Temperature: 33.0°C (91°F)
Dewpoint: 15.0°C (59°F) [RH = 34%]
Pressure (altimeter): 29.76 inches Hg (1008.0 mb)
Winds: from the NNW (330 degrees) at 10 MPH (9 knots; 4.6 m/s)
Visibility: 6 or more miles (10+ km)
Ceiling: ceiling and visibility are OK
Clouds: unknown
Weather: no significant weather observed at this time

METAR text: LCLK 251700Z 32011KT CAVOK 34/15 Q1008 NOSIG
Conditions at: LCLK (LARNACA/LARNAX A, CY) observed 1700 UTC 25 June 2019
Temperature: 34.0°C (93°F)
Dewpoint: 15.0°C (59°F) [RH = 32%]
Pressure (altimeter): 29.76 inches Hg (1008.0 mb)
Winds: from the NW (320 degrees) at 13 MPH (11 knots; 5.7 m/s)
Visibility: 6 or more miles (10+ km)
Ceiling: ceiling and visibility are OK
Clouds: unknown
Weather: no significant weather observed at this time

METAR text: LCLK 251630Z 30006KT 250V340 CAVOK 34/15 Q1008 NOSIG
Conditions at: LCLK (LARNACA/LARNAX A, CY) observed 1630 UTC 25 June 2019
Temperature: 34.0°C (93°F)
Dewpoint: 15.0°C (59°F) [RH = 32%]
Pressure (altimeter): 29.76 inches Hg (1008.0 mb)
Winds: from the WNW (300 degrees) at 7 MPH (6 knots; 3.1 m/s)
Visibility: 6 or more miles (10+ km)
Ceiling: ceiling and visibility are OK
Clouds: unknown
Weather: no significant weather observed at this time

METAR text: LCLK 251600Z 22009KT CAVOK 33/22 Q1007 NOSIG
Conditions at: LCLK (LARNACA/LARNAX A, CY) observed 1600 UTC 25 June 2019
Temperature: 33.0°C (91°F)
Dewpoint: 22.0°C (72°F) [RH = 53%]
Pressure (altimeter): 29.73 inches Hg (1007.0 mb)
Winds: from the SW (220 degrees) at 10 MPH (9 knots; 4.6 m/s)
Visibility: 6 or more miles (10+ km)
Ceiling: ceiling and visibility are OK
Clouds: unknown
Weather: no significant weather observed at this time

METAR text: LCLK 251530Z 22011KT CAVOK 33/21 Q1007 NOSIG
Conditions at: LCLK (LARNACA/LARNAX A, CY) observed 1530 UTC 25 June 2019
Temperature: 33.0°C (91°F)
Dewpoint: 21.0°C (70°F) [RH = 49%]
Pressure (altimeter): 29.73 inches Hg (1007.0 mb)
Winds: from the SW (220 degrees) at 13 MPH (11 knots; 5.7 m/s)
Visibility: 6 or more miles (10+ km)
Ceiling: ceiling and visibility are OK
Clouds: unknown
Weather: no significant weather observed at this time

METAR text: LCLK 251500Z 21014KT CAVOK 34/22 Q1007 NOSIG
Conditions at: LCLK (LARNACA/LARNAX A, CY) observed 1500 UTC 25 June 2019
Temperature: 34.0°C (93°F)
Dewpoint: 22.0°C (72°F) [RH = 50%]
Pressure (altimeter): 29.73 inches Hg (1007.0 mb)
Winds: from the SSW (210 degrees) at 16 MPH (14 knots; 7.2 m/s)
Visibility: 6 or more miles (10+ km)
Ceiling: ceiling and visibility are OK
Clouds: unknown
Weather: no significant weather observed at this time

METAR text: LCLK 251430Z 20012KT CAVOK 34/22 Q1007 NOSIG
Conditions at: LCLK (LARNACA/LARNAX A, CY) observed 1430 UTC 25 June 2019
Temperature: 34.0°C (93°F)
Dewpoint: 22.0°C (72°F) [RH = 50%]
Pressure (altimeter): 29.73 inches Hg (1007.0 mb)
Winds: from the SSW (200 degrees) at 14 MPH (12 knots; 6.2 m/s)
Visibility: 6 or more miles (10+ km)
Ceiling: ceiling and visibility are OK
Clouds: unknown
Weather: no significant weather observed at this time

METAR text: LCLK 251400Z 20012KT CAVOK 35/22 Q1007 NOSIG
Conditions at: LCLK (LARNACA/LARNAX A, CY) observed 1400 UTC 25 June 2019
Temperature: 35.0°C (95°F)
Dewpoint: 22.0°C (72°F) [RH = 47%]
Pressure (altimeter): 29.73 inches Hg (1007.0 mb)
Winds: from the SSW (200 degrees) at 14 MPH (12 knots; 6.2 m/s)
Visibility: 6 or more miles (10+ km)
Ceiling: ceiling and visibility are OK
Clouds: unknown
Weather: no significant weather observed at this time

METAR text: LCLK 251330Z 20012KT 170V230 CAVOK 35/19 Q1008 NOSIG
Conditions at: LCLK (LARNACA/LARNAX A, CY) observed 1330 UTC 25 June 2019
Temperature: 35.0°C (95°F)
Dewpoint: 19.0°C (66°F) [RH = 39%]
Pressure (altimeter): 29.76 inches Hg (1008.0 mb)
Winds: from the SSW (200 degrees) at 14 MPH (12 knots; 6.2 m/s)
Visibility: 6 or more miles (10+ km)
Ceiling: ceiling and visibility are OK
Clouds: unknown
Weather: no significant weather observed at this time

METAR text: LCLK 251300Z 22015KT CAVOK 36/19 Q1008 NOSIG
Conditions at: LCLK (LARNACA/LARNAX A, CY) observed 1300 UTC 25 June 2019
Temperature: 36.0°C (97°F)
Dewpoint: 19.0°C (66°F) [RH = 37%]
Pressure (altimeter): 29.76 inches Hg (1008.0 mb)
Winds: from the SW (220 degrees) at 17 MPH (15 knots; 7.7 m/s)
Visibility: 6 or more miles (10+ km)
Ceiling: ceiling and visibility are OK
Clouds: unknown
Weather: no significant weather observed at this time

METAR text: LCLK 251230Z 21015KT CAVOK 35/19 Q1008 NOSIG
Conditions at: LCLK (LARNACA/LARNAX A, CY) observed 1230 UTC 25 June 2019
Temperature: 35.0°C (95°F)
Dewpoint: 19.0°C (66°F) [RH = 39%]
Pressure (altimeter): 29.76 inches Hg (1008.0 mb)
Winds: from the SSW (210 degrees) at 17 MPH (15 knots; 7.7 m/s)
Visibility: 6 or more miles (10+ km)
Ceiling: ceiling and visibility are OK
Clouds: unknown
Weather: no significant weather observed at this time

METAR text: LCLK 251200Z 20015KT CAVOK 35/20 Q1008 NOSIG
Conditions at: LCLK (LARNACA/LARNAX A, CY) observed 1200 UTC 25 June 2019
Temperature: 35.0°C (95°F)
Dewpoint: 20.0°C (68°F) [RH = 42%]
Pressure (altimeter): 29.76 inches Hg (1008.0 mb)
Winds: from the SSW (200 degrees) at 17 MPH (15 knots; 7.7 m/s)
Visibility: 6 or more miles (10+ km)
Ceiling: ceiling and visibility are OK
Clouds: unknown
Weather: no significant weather observed at this time

METAR text: LCLK 251130Z 20014KT CAVOK 34/21 Q1008 NOSIG
Conditions at: LCLK (LARNACA/LARNAX A, CY) observed 1130 UTC 25 June 2019
Temperature: 34.0°C (93°F)
Dewpoint: 21.0°C (70°F) [RH = 47%]
Pressure (altimeter): 29.76 inches Hg (1008.0 mb)
Winds: from the SSW (200 degrees) at 16 MPH (14 knots; 7.2 m/s)
Visibility: 6 or more miles (10+ km)
Ceiling: ceiling and visibility are OK
Clouds: unknown
Weather: no significant weather observed at this time

METAR text: LCLK 251100Z 19013KT CAVOK 34/21 Q1008 NOSIG
Conditions at: LCLK (LARNACA/LARNAX A, CY) observed 1100 UTC 25 June 2019
Temperature: 34.0°C (93°F)
Dewpoint: 21.0°C (70°F) [RH = 47%]
Pressure (altimeter): 29.76 inches Hg (1008.0 mb)
Winds: from the S (190 degrees) at 15 MPH (13 knots; 6.7 m/s)
Visibility: 6 or more miles (10+ km)
Ceiling: ceiling and visibility are OK
Clouds: unknown
Weather: no significant weather observed at this time

METAR text: LCLK 251030Z 19015KT CAVOK 34/21 Q1008 NOSIG
Conditions at: LCLK (LARNACA/LARNAX A, CY) observed 1030 UTC 25 June 2019
Temperature: 34.0°C (93°F)
Dewpoint: 21.0°C (70°F) [RH = 47%]
Pressure (altimeter): 29.76 inches Hg (1008.0 mb)
Winds: from the S (190 degrees) at 17 MPH (15 knots; 7.7 m/s)
Visibility: 6 or more miles (10+ km)
Ceiling: ceiling and visibility are OK
Clouds: unknown
Weather: no significant weather observed at this time

METAR text: LCLK 251000Z 20013KT CAVOK 34/22 Q1008 NOSIG
Conditions at: LCLK (LARNACA/LARNAX A, CY) observed 1000 UTC 25 June 2019
Temperature: 34.0°C (93°F)
Dewpoint: 22.0°C (72°F) [RH = 50%]
Pressure (altimeter): 29.76 inches Hg (1008.0 mb)
Winds: from the SSW (200 degrees) at 15 MPH (13 knots; 6.7 m/s)
Visibility: 6 or more miles (10+ km)
Ceiling: ceiling and visibility are OK
Clouds: unknown
Weather: no significant weather observed at this time

METAR text: LCLK 250930Z 20013KT CAVOK 33/23 Q1009 NOSIG
Conditions at: LCLK (LARNACA/LARNAX A, CY) observed 0930 UTC 25 June 2019
Temperature: 33.0°C (91°F)
Dewpoint: 23.0°C (73°F) [RH = 56%]
Pressure (altimeter): 29.79 inches Hg (1009.0 mb)
Winds: from the SSW (200 degrees) at 15 MPH (13 knots; 6.7 m/s)
Visibility: 6 or more miles (10+ km)
Ceiling: ceiling and visibility are OK
Clouds: unknown
Weather: no significant weather observed at this time

METAR text: LCLK 250900Z 19012KT CAVOK 33/23 Q1009 NOSIG
Conditions at: LCLK (LARNACA/LARNAX A, CY) observed 0900 UTC 25 June 2019
Temperature: 33.0°C (91°F)
Dewpoint: 23.0°C (73°F) [RH = 56%]
Pressure (altimeter): 29.79 inches Hg (1009.0 mb)
Winds: from the S (190 degrees) at 14 MPH (12 knots; 6.2 m/s)
Visibility: 6 or more miles (10+ km)
Ceiling: ceiling and visibility are OK
Clouds: unknown
Weather: no significant weather observed at this time

METAR text: LCLK 250830Z 19011KT CAVOK 31/25 Q1009 NOSIG
Conditions at: LCLK (LARNACA/LARNAX A, CY) observed 0830 UTC 25 June 2019
Temperature: 31.0°C (88°F)
Dewpoint: 25.0°C (77°F) [RH = 71%]
Pressure (altimeter): 29.79 inches Hg (1009.0 mb)
Winds: from the S (190 degrees) at 13 MPH (11 knots; 5.7 m/s)
Visibility: 6 or more miles (10+ km)
Ceiling: ceiling and visibility are OK
Clouds: unknown
Weather: no significant weather observed at this time

METAR text: LCLK 250800Z 18010KT CAVOK 30/25 Q1009 NOSIG
Conditions at: LCLK (LARNACA/LARNAX A, CY) observed 0800 UTC 25 June 2019
Temperature: 30.0°C (86°F)
Dewpoint: 25.0°C (77°F) [RH = 75%]
Pressure (altimeter): 29.79 inches Hg (1009.0 mb)
Winds: from the S (180 degrees) at 12 MPH (10 knots; 5.1 m/s)
Visibility: 6 or more miles (10+ km)
Ceiling: ceiling and visibility are OK
Clouds: unknown
Weather: no significant weather observed at this time

METAR text: LCLK 250730Z 19010KT CAVOK 30/25 Q1009 NOSIG
Conditions at: LCLK (LARNACA/LARNAX A, CY) observed 0730 UTC 25 June 2019
Temperature: 30.0°C (86°F)
Dewpoint: 25.0°C (77°F) [RH = 75%]
Pressure (altimeter): 29.79 inches Hg (1009.0 mb)
Winds: from the S (190 degrees) at 12 MPH (10 knots; 5.1 m/s)
Visibility: 6 or more miles (10+ km)
Ceiling: ceiling and visibility are OK
Clouds: unknown
Weather: no significant weather observed at this time

METAR text: LCLK 250700Z 18010KT CAVOK 30/24 Q1009 NOSIG
Conditions at: LCLK (LARNACA/LARNAX A, CY) observed 0700 UTC 25 June 2019
Temperature: 30.0°C (86°F)
Dewpoint: 24.0°C (75°F) [RH = 70%]
Pressure (altimeter): 29.79 inches Hg (1009.0 mb)
Winds: from the S (180 degrees) at 12 MPH (10 knots; 5.1 m/s)
Visibility: 6 or more miles (10+ km)
Ceiling: ceiling and visibility are OK
Clouds: unknown
Weather: no significant weather observed at this time

METAR text: LCLK 250630Z 20009KT CAVOK 31/24 Q1009 NOSIG
Conditions at: LCLK (LARNACA/LARNAX A, CY) observed 0630 UTC 25 June 2019
Temperature: 31.0°C (88°F)
Dewpoint: 24.0°C (75°F) [RH = 66%]
Pressure (altimeter): 29.79 inches Hg (1009.0 mb)
Winds: from the SSW (200 degrees) at 10 MPH (9 knots; 4.6 m/s)
Visibility: 6 or more miles (10+ km)
Ceiling: ceiling and visibility are OK
Clouds: unknown
Weather: no significant weather observed at this time

METAR text: LCLK 250600Z 20010KT CAVOK 30/25 Q1009 NOSIG
Conditions at: LCLK (LARNACA/LARNAX A, CY) observed 0600 UTC 25 June 2019
Temperature: 30.0°C (86°F)
Dewpoint: 25.0°C (77°F) [RH = 75%]
Pressure (altimeter): 29.79 inches Hg (1009.0 mb)
Winds: from the SSW (200 degrees) at 12 MPH (10 knots; 5.1 m/s)
Visibility: 6 or more miles (10+ km)
Ceiling: ceiling and visibility are OK
Clouds: unknown
Weather: no significant weather observed at this time

METAR text: LCLK 250530Z 20008KT 170V230 CAVOK 29/25 Q1009 NOSIG
Conditions at: LCLK (LARNACA/LARNAX A, CY) observed 0530 UTC 25 June 2019
Temperature: 29.0°C (84°F)
Dewpoint: 25.0°C (77°F) [RH = 79%]
Pressure (altimeter): 29.79 inches Hg (1009.0 mb)
Winds: from the SSW (200 degrees) at 9 MPH (8 knots; 4.1 m/s)
Visibility: 6 or more miles (10+ km)
Ceiling: ceiling and visibility are OK
Clouds: unknown
Weather: no significant weather observed at this time

METAR text: LCLK 250500Z 20007KT CAVOK 29/25 Q1009 NOSIG
Conditions at: LCLK (LARNACA/LARNAX A, CY) observed 0500 UTC 25 June 2019
Temperature: 29.0°C (84°F)
Dewpoint: 25.0°C (77°F) [RH = 79%]
Pressure (altimeter): 29.79 inches Hg (1009.0 mb)
Winds: from the SSW (200 degrees) at 8 MPH (7 knots; 3.6 m/s)
Visibility: 6 or more miles (10+ km)
Ceiling: ceiling and visibility are OK
Clouds: unknown
Weather: no significant weather observed at this time

METAR text: LCLK 250430Z 22005KT 190V260 CAVOK 28/25 Q1009 NOSIG
Conditions at: LCLK (LARNACA/LARNAX A, CY) observed 0430 UTC 25 June 2019
Temperature: 28.0°C (82°F)
Dewpoint: 25.0°C (77°F) [RH = 84%]
Pressure (altimeter): 29.79 inches Hg (1009.0 mb)
Winds: from the SW (220 degrees) at 6 MPH (5 knots; 2.6 m/s)
Visibility: 6 or more miles (10+ km)
Ceiling: ceiling and visibility are OK
Clouds: unknown
Weather: no significant weather observed at this time

METAR text: LCLK 250400Z VRB02KT CAVOK 27/25 Q1009 NOSIG
Conditions at: LCLK (LARNACA/LARNAX A, CY) observed 0400 UTC 25 June 2019
Temperature: 27.0°C (81°F)
Dewpoint: 25.0°C (77°F) [RH = 89%]
Pressure (altimeter): 29.79 inches Hg (1009.0 mb)
Winds: variable direction winds at 2 MPH (2 knots; 1.0 m/s)
Visibility: 6 or more miles (10+ km)
Ceiling: ceiling and visibility are OK
Clouds: unknown
Weather: no significant weather observed at this time

METAR text: LCLK 250330Z 27002KT 9999 FEW003 26/24 Q1008 NOSIG
Conditions at: LCLK (LARNACA/LARNAX A, CY) observed 0330 UTC 25 June 2019
Temperature: 26.0°C (79°F)
Dewpoint: 24.0°C (75°F) [RH = 89%]
Pressure (altimeter): 29.76 inches Hg (1008.0 mb)
Winds: from the W (270 degrees) at 2 MPH (2 knots; 1.0 m/s)
Visibility: 6 or more miles (10+ km)
Ceiling: at least 12,000 feet AGL
Clouds: few clouds at 300 feet AGL
Weather: no significant weather observed at this time

METAR text: LCLK 250300Z VRB02KT 7000 FEW003 25/24 Q1008 NOSIG
Conditions at: LCLK (LARNACA/LARNAX A, CY) observed 0300 UTC 25 June 2019
Temperature: 25.0°C (77°F)
Dewpoint: 24.0°C (75°F) [RH = 94%]
Pressure (altimeter): 29.76 inches Hg (1008.0 mb)
Winds: variable direction winds at 2 MPH (2 knots; 1.0 m/s)
Visibility: 4 miles ( 7 km)
Ceiling: at least 12,000 feet AGL
Clouds: few clouds at 300 feet AGL
Weather: no significant weather observed at this time

METAR text: LCLK 250230Z 23005KT 7000 FEW002 25/24 Q1008 NOSIG
Conditions at: LCLK (LARNACA/LARNAX A, CY) observed 0230 UTC 25 June 2019
Temperature: 25.0°C (77°F)
Dewpoint: 24.0°C (75°F) [RH = 94%]
Pressure (altimeter): 29.76 inches Hg (1008.0 mb)
Winds: from the SW (230 degrees) at 6 MPH (5 knots; 2.6 m/s)
Visibility: 4 miles ( 7 km)
Ceiling: at least 12,000 feet AGL
Clouds: few clouds at 200 feet AGL
Weather: no significant weather observed at this time

METAR text: LCLK 250200Z 23004KT 7000 FEW002 25/23 Q1008 NOSIG
Conditions at: LCLK (LARNACA/LARNAX A, CY) observed 0200 UTC 25 June 2019
Temperature: 25.0°C (77°F)
Dewpoint: 23.0°C (73°F) [RH = 89%]
Pressure (altimeter): 29.76 inches Hg (1008.0 mb)
Winds: from the SW (230 degrees) at 5 MPH (4 knots; 2.1 m/s)
Visibility: 4 miles ( 7 km)
Ceiling: at least 12,000 feet AGL
Clouds: few clouds at 200 feet AGL
Weather: no significant weather observed at this time

METAR text: LCLK 250130Z 24003KT 7000 SCT002 25/23 Q1007 NOSIG
Conditions at: LCLK (LARNACA/LARNAX A, CY) observed 0130 UTC 25 June 2019
Temperature: 25.0°C (77°F)
Dewpoint: 23.0°C (73°F) [RH = 89%]
Pressure (altimeter): 29.73 inches Hg (1007.0 mb)
Winds: from the WSW (240 degrees) at 3 MPH (3 knots; 1.5 m/s)
Visibility: 4 miles ( 7 km)
Ceiling: at least 12,000 feet AGL
Clouds: scattered clouds at 200 feet AGL
Weather: no significant weather observed at this time

METAR text: LCLK 250100Z 26002KT 6000 VCFG SCT002 24/22 Q1007 NOSIG
Conditions at: LCLK (LARNACA/LARNAX A, CY) observed 0100 UTC 25 June 2019
Temperature: 24.0°C (75°F)
Dewpoint: 22.0°C (72°F) [RH = 89%]
Pressure (altimeter): 29.73 inches Hg (1007.0 mb)
Winds: from the W (260 degrees) at 2 MPH (2 knots; 1.0 m/s)
Visibility: 4 miles ( 6 km)
Ceiling: at least 12,000 feet AGL
Clouds: scattered clouds at 200 feet AGL
Weather: VCFG  (fog in vicinity)

METAR text: LCLK 250030Z 21004KT 4500 0900SE R22/0225V1700D R04/0225V0450N BCFG BKN001 25/23 Q1007 NOSIG
Conditions at: LCLK (LARNACA/LARNAX A, CY) observed 0030 UTC 25 June 2019
Temperature: 25.0°C (77°F)
Dewpoint: 23.0°C (73°F) [RH = 89%]
Pressure (altimeter): 29.73 inches Hg (1007.0 mb)
Winds: from the SSW (210 degrees) at 5 MPH (4 knots; 2.1 m/s)
Visibility: 2.80 miles (4.51 km)
Ceiling: 100 feet AGL
Clouds: broken clouds at 100 feet AGL
Weather: BCFG  (patches of fog)

METAR text: LCLK 250000Z 19004KT 6000 VCFG SCT001 26/23 Q1007 NOSIG
Conditions at: LCLK (LARNACA/LARNAX A, CY) observed 0000 UTC 25 June 2019
Temperature: 26.0°C (79°F)
Dewpoint: 23.0°C (73°F) [RH = 84%]
Pressure (altimeter): 29.73 inches Hg (1007.0 mb)
Winds: from the S (190 degrees) at 5 MPH (4 knots; 2.1 m/s)
Visibility: 4 miles ( 6 km)
Ceiling: at least 12,000 feet AGL
Clouds: scattered clouds at 100 feet AGL
Weather: VCFG  (fog in vicinity)

METAR text: LCLK 242330Z 18004KT 6000 VCFG BKN001 25/22 Q1008 NOSIG
Conditions at: LCLK (LARNACA/LARNAX A, CY) observed 2330 UTC 24 June 2019
Temperature: 25.0°C (77°F)
Dewpoint: 22.0°C (72°F) [RH = 83%]
Pressure (altimeter): 29.76 inches Hg (1008.0 mb)
Winds: from the S (180 degrees) at 5 MPH (4 knots; 2.1 m/s)
Visibility: 4 miles ( 6 km)
Ceiling: 100 feet AGL
Clouds: broken clouds at 100 feet AGL
Weather: VCFG  (fog in vicinity)

METAR text: LCLK 242300Z 00000KT 7000 VCFG FEW001 25/19 Q1008 NOSIG
Conditions at: LCLK (LARNACA/LARNAX A, CY) observed 2300 UTC 24 June 2019
Temperature: 25.0°C (77°F)
Dewpoint: 19.0°C (66°F) [RH = 69%]
Pressure (altimeter): 29.76 inches Hg (1008.0 mb)
Winds: calm
Visibility: 4 miles ( 7 km)
Ceiling: at least 12,000 feet AGL
Clouds: few clouds at 100 feet AGL
Weather: VCFG  (fog in vicinity)

METAR text: LCLK 242230Z VRB02KT CAVOK 26/19 Q1008 NOSIG
Conditions at: LCLK (LARNACA/LARNAX A, CY) observed 2230 UTC 24 June 2019
Temperature: 26.0°C (79°F)
Dewpoint: 19.0°C (66°F) [RH = 65%]
Pressure (altimeter): 29.76 inches Hg (1008.0 mb)
Winds: variable direction winds at 2 MPH (2 knots; 1.0 m/s)
Visibility: 6 or more miles (10+ km)
Ceiling: ceiling and visibility are OK
Clouds: unknown
Weather: no significant weather observed at this time

METAR text: LCLK 242200Z 29004KT CAVOK 27/20 Q1008 NOSIG
Conditions at: LCLK (LARNACA/LARNAX A, CY) observed 2200 UTC 24 June 2019
Temperature: 27.0°C (81°F)
Dewpoint: 20.0°C (68°F) [RH = 66%]
Pressure (altimeter): 29.76 inches Hg (1008.0 mb)
Winds: from the WNW (290 degrees) at 5 MPH (4 knots; 2.1 m/s)
Visibility: 6 or more miles (10+ km)
Ceiling: ceiling and visibility are OK
Clouds: unknown
Weather: no significant weather observed at this time

METAR text: LCLK 242130Z 19003KT 150V320 CAVOK 27/19 Q1008 NOSIG
Conditions at: LCLK (LARNACA/LARNAX A, CY) observed 2130 UTC 24 June 2019
Temperature: 27.0°C (81°F)
Dewpoint: 19.0°C (66°F) [RH = 62%]
Pressure (altimeter): 29.76 inches Hg (1008.0 mb)
Winds: from the S (190 degrees) at 3 MPH (3 knots; 1.5 m/s)
Visibility: 6 or more miles (10+ km)
Ceiling: ceiling and visibility are OK
Clouds: unknown
Weather: no significant weather observed at this time

METAR text: LCLK 242100Z 14002KT CAVOK 27/19 Q1009 NOSIG
Conditions at: LCLK (LARNACA/LARNAX A, CY) observed 2100 UTC 24 June 2019
Temperature: 27.0°C (81°F)
Dewpoint: 19.0°C (66°F) [RH = 62%]
Pressure (altimeter): 29.79 inches Hg (1009.0 mb)
Winds: from the SE (140 degrees) at 2 MPH (2 knots; 1.0 m/s)
Visibility: 6 or more miles (10+ km)
Ceiling: ceiling and visibility are OK
Clouds: unknown
Weather: no significant weather observed at this time

METAR text: LCLK 242030Z 19003KT 170V260 CAVOK 27/19 Q1009 NOSIG
Conditions at: LCLK (LARNACA/LARNAX A, CY) observed 2030 UTC 24 June 2019
Temperature: 27.0°C (81°F)
Dewpoint: 19.0°C (66°F) [RH = 62%]
Pressure (altimeter): 29.79 inches Hg (1009.0 mb)
Winds: from the S (190 degrees) at 3 MPH (3 knots; 1.5 m/s)
Visibility: 6 or more miles (10+ km)
Ceiling: ceiling and visibility are OK
Clouds: unknown
Weather: no significant weather observed at this time

METAR text: LCLK 242000Z 33006KT 300V360 CAVOK 28/19 Q1009 NOSIG
Conditions at: LCLK (LARNACA/LARNAX A, CY) observed 2000 UTC 24 June 2019
Temperature: 28.0°C (82°F)
Dewpoint: 19.0°C (66°F) [RH = 58%]
Pressure (altimeter): 29.79 inches Hg (1009.0 mb)
Winds: from the NNW (330 degrees) at 7 MPH (6 knots; 3.1 m/s)
Visibility: 6 or more miles (10+ km)
Ceiling: ceiling and visibility are OK
Clouds: unknown
Weather: no significant weather observed at this time

METAR text: LCLK 241930Z 30003KT CAVOK 27/22 Q1009 NOSIG
Conditions at: LCLK (LARNACA/LARNAX A, CY) observed 1930 UTC 24 June 2019
Temperature: 27.0°C (81°F)
Dewpoint: 22.0°C (72°F) [RH = 74%]
Pressure (altimeter): 29.79 inches Hg (1009.0 mb)
Winds: from the WNW (300 degrees) at 3 MPH (3 knots; 1.5 m/s)
Visibility: 6 or more miles (10+ km)
Ceiling: ceiling and visibility are OK
Clouds: unknown
Weather: no significant weather observed at this time

METAR text: LCLK 241900Z 28004KT 250V310 CAVOK 27/24 Q1009 NOSIG
Conditions at: LCLK (LARNACA/LARNAX A, CY) observed 1900 UTC 24 June 2019
Temperature: 27.0°C (81°F)
Dewpoint: 24.0°C (75°F) [RH = 84%]
Pressure (altimeter): 29.79 inches Hg (1009.0 mb)
Winds: from the W (280 degrees) at 5 MPH (4 knots; 2.1 m/s)
Visibility: 6 or more miles (10+ km)
Ceiling: ceiling and visibility are OK
Clouds: unknown
Weather: no significant weather observed at this time

METAR text: LCLK 241830Z 27002KT CAVOK 27/25 Q1009 NOSIG
Conditions at: LCLK (LARNACA/LARNAX A, CY) observed 1830 UTC 24 June 2019
Temperature: 27.0°C (81°F)
Dewpoint: 25.0°C (77°F) [RH = 89%]
Pressure (altimeter): 29.79 inches Hg (1009.0 mb)
Winds: from the W (270 degrees) at 2 MPH (2 knots; 1.0 m/s)
Visibility: 6 or more miles (10+ km)
Ceiling: ceiling and visibility are OK
Clouds: unknown
Weather: no significant weather observed at this time

METAR text: LCLK 241800Z 24006KT CAVOK 28/25 Q1008 NOSIG
Conditions at: LCLK (LARNACA/LARNAX A, CY) observed 1800 UTC 24 June 2019
Temperature: 28.0°C (82°F)
Dewpoint: 25.0°C (77°F) [RH = 84%]
Pressure (altimeter): 29.76 inches Hg (1008.0 mb)
Winds: from the WSW (240 degrees) at 7 MPH (6 knots; 3.1 m/s)
Visibility: 6 or more miles (10+ km)
Ceiling: ceiling and visibility are OK
Clouds: unknown
Weather: no significant weather observed at this time

METAR text: LCLK 241730Z 23008KT 200V260 CAVOK 28/24 Q1008 NOSIG
Conditions at: LCLK (LARNACA/LARNAX A, CY) observed 1730 UTC 24 June 2019
Temperature: 28.0°C (82°F)
Dewpoint: 24.0°C (75°F) [RH = 79%]
Pressure (altimeter): 29.76 inches Hg (1008.0 mb)
Winds: from the SW (230 degrees) at 9 MPH (8 knots; 4.1 m/s)
Visibility: 6 or more miles (10+ km)
Ceiling: ceiling and visibility are OK
Clouds: unknown
Weather: no significant weather observed at this time

METAR text: LCLK 241700Z 21008KT CAVOK 29/24 Q1008 NOSIG
Conditions at: LCLK (LARNACA/LARNAX A, CY) observed 1700 UTC 24 June 2019
Temperature: 29.0°C (84°F)
Dewpoint: 24.0°C (75°F) [RH = 74%]
Pressure (altimeter): 29.76 inches Hg (1008.0 mb)
Winds: from the SSW (210 degrees) at 9 MPH (8 knots; 4.1 m/s)
Visibility: 6 or more miles (10+ km)
Ceiling: ceiling and visibility are OK
Clouds: unknown
Weather: no significant weather observed at this time

Forecast for: LCLK (LARNACA/LARNAX A, CY)
Text: TAF LCLK 252330Z 2600/2624 30007KT CAVOK
Forecast period: 0000 to 0900 UTC 26 June 2019
Forecast type: FROM: standard forecast or significant change
Winds: from the WNW (300 degrees) at 8 MPH (7 knots; 3.6 m/s)
Visibility: 6 or more miles 10+ km)
Ceiling: unknown
Clouds: missing
Weather: NSW  (no significant weather)
Text: PROB30
Forecast period: 0000 to 0500 UTC 26 June 2019
Forecast type: TEMPORARY: The following changes expected for less than half the time period
Visibility: 2.49 miles (4.01 km)
Ceiling: 700 feet AGL
Clouds: broken clouds at 700 feet AGL
Weather: BR  (mist)
Text: TEMPO 2600/2605 4000 BR BKN007
Forecast period: 0000 to 0500 UTC 26 June 2019
Forecast type: TEMPORARY: The following changes expected for less than half the time period
Visibility: 0.31 miles (0.50 km)
Ceiling: 100 feet AGL
Clouds: broken clouds at 100 feet AGL
Weather: BCFG  (patches of fog)
Text: PROB30
Forecast period: 0900 to 1700 UTC 26 June 2019
Forecast type: BECOMING: Conditions expected to become as follows by 1200 UTC 26 June 2019
Winds: from the SSW (200 degrees) at 21 MPH (18 knots; 9.3 m/s)
Visibility: 6 or more miles 10+ km)
Ceiling: unknown
Clouds: missing
Weather: NSW  (no significant weather)
Text: TEMPO 2600/2605 0500 BCFG BKN001
Forecast period: 1700 UTC 26 June 2019 to 0000 UTC 27 June 2019
Forecast type: BECOMING: Conditions expected to become as follows by 1900 UTC 26 June 2019
Winds: from the WNW (300 degrees) at 8 MPH (7 knots; 3.6 m/s)
Visibility: 6 or more miles 10+ km)
Ceiling: unknown
Clouds: missing
Weather: NSW  (no significant weather)